createdAt,value
2023-02-23T00:02:05.804Z,18.60
2023-02-23T00:07:04.242Z,18.63
2023-02-23T00:12:07.629Z,9.40
2023-02-23T00:17:14.180Z,14.07
2023-02-23T00:22:13.045Z,11.23
2023-02-23T00:27:17.522Z,11.67
2023-02-23T00:32:19.879Z,9.80
2023-02-23T00:37:18.248Z,17.67
2023-02-23T00:42:19.702Z,20.93
2023-02-23T00:48:11.436Z,13.57
2023-02-23T00:53:11.961Z,11.23
2023-02-23T00:58:10.133Z,18.57
2023-02-23T01:03:08.304Z,10.20
2023-02-23T01:08:10.191Z,20.63
2023-02-23T01:13:09.991Z,12.90
2023-02-23T01:18:08.179Z,13.77
2023-02-23T01:23:07.493Z,12.63
2023-02-23T01:28:05.986Z,12.87
2023-02-23T01:33:06.980Z,15.57
2023-02-23T01:38:05.127Z,16.70
2023-02-23T01:43:13.574Z,15.13
2023-02-23T01:48:15.374Z,14.93
2023-02-23T01:53:14.387Z,7.63
2023-02-23T01:58:16.243Z,9.23
2023-02-23T02:03:22.757Z,18.87
2023-02-23T02:08:23.922Z,11.97
2023-02-23T02:13:26.093Z,21.13
2023-02-23T02:18:38.158Z,14.70
2023-02-23T02:24:10.289Z,9.70
2023-02-23T02:29:44.290Z,22.47
2023-02-23T02:35:27.478Z,16.70
2023-02-23T02:40:33.854Z,12.27
2023-02-23T02:45:38.713Z,18.10
2023-02-23T02:50:46.309Z,11.80
2023-02-23T02:55:48.624Z,19.10
2023-02-23T03:01:08.761Z,9.20
2023-02-23T03:06:24.746Z,17.90
2023-02-23T03:11:44.647Z,16.17
2023-02-23T03:17:10.330Z,20.30
2023-02-23T03:22:36.656Z,12.57
2023-02-23T03:28:04.132Z,13.03
2023-02-23T03:33:26.331Z,22.37
2023-02-23T03:38:51.130Z,29.53
2023-02-23T03:44:13.180Z,16.07
2023-02-23T03:49:32.135Z,13.33
2023-02-23T03:54:54.765Z,22.10
2023-02-23T04:00:15.376Z,10.60
2023-02-23T04:05:36.809Z,17.80
2023-02-23T04:10:54.388Z,24.10
2023-02-23T04:15:56.517Z,13.00
2023-02-23T04:20:55.572Z,21.50
2023-02-23T04:25:55.638Z,29.43
2023-02-23T04:30:55.810Z,18.63
2023-02-23T04:35:55.190Z,11.50
2023-02-23T04:40:53.776Z,27.97
2023-02-23T04:45:51.925Z,14.50
2023-02-23T04:50:55.149Z,25.23
2023-02-23T04:55:53.603Z,31.83
2023-02-23T05:00:52.066Z,26.23
2023-02-23T05:05:50.795Z,21.40
2023-02-23T05:10:50.648Z,12.57
2023-02-23T05:15:48.794Z,20.43
2023-02-23T05:20:47.882Z,30.80
2023-02-23T05:25:46.563Z,26.77
2023-02-23T05:30:46.462Z,19.90
2023-02-23T05:35:44.942Z,21.80
2023-02-23T05:40:43.443Z,22.77
2023-02-23T05:45:42.651Z,19.13
2023-02-23T05:50:42.443Z,12.23
2023-02-23T05:55:40.912Z,22.07
2023-02-23T06:00:39.399Z,23.73
2023-02-23T06:05:37.857Z,17.60
2023-02-23T06:10:37.688Z,21.27
2023-02-23T06:15:36.153Z,20.90
2023-02-23T06:20:34.703Z,17.53
2023-02-23T06:25:32.817Z,18.97
2023-02-23T06:30:33.060Z,25.43
2023-02-23T06:35:32.203Z,24.80
2023-02-23T06:40:31.095Z,22.97
2023-02-23T06:45:29.686Z,15.50
2023-02-23T06:50:29.853Z,20.07
2023-02-23T06:55:28.916Z,16.57
2023-02-23T07:00:27.686Z,29.40
2023-02-23T07:05:26.284Z,36.17
2023-02-23T07:10:26.541Z,21.90
2023-02-23T07:15:24.810Z,22.57
2023-02-23T07:20:23.408Z,29.33
2023-02-23T07:25:21.618Z,24.20
2023-02-23T07:30:24.666Z,24.93
2023-02-23T07:35:23.039Z,26.43
2023-02-23T07:40:21.664Z,41.90
2023-02-23T07:45:21.546Z,27.10
2023-02-23T07:50:20.239Z,26.80
2023-02-23T07:55:18.587Z,32.27
2023-02-23T08:00:18.043Z,32.70
2023-02-23T08:05:18.106Z,28.97
2023-02-23T08:10:16.305Z,28.00
2023-02-23T08:15:15.746Z,31.83
2023-02-23T08:20:14.795Z,37.47
2023-02-23T08:25:14.701Z,42.20
2023-02-23T08:30:14.648Z,34.03
2023-02-23T08:35:14.208Z,32.87
2023-02-23T08:40:15.980Z,33.27
2023-02-23T08:45:14.422Z,33.20
2023-02-23T08:50:13.952Z,28.47
2023-02-23T08:55:14.796Z,41.70
2023-02-23T09:00:16.785Z,38.80
2023-02-23T09:05:15.842Z,33.20
2023-02-23T09:10:15.348Z,42.77
2023-02-23T09:15:15.831Z,32.20
2023-02-23T09:20:16.237Z,28.87
2023-02-23T09:25:20.159Z,33.97
2023-02-23T09:30:22.561Z,31.93
2023-02-23T09:35:23.453Z,33.60
2023-02-23T09:40:25.291Z,33.70
2023-02-23T09:45:33.390Z,26.83
2023-02-23T09:50:33.339Z,31.83
2023-02-23T09:55:32.681Z,23.37
2023-02-23T10:00:35.420Z,24.73
2023-02-23T10:05:40.035Z,21.70
2023-02-23T10:10:45.432Z,25.67
2023-02-23T10:15:51.657Z,16.90
2023-02-23T10:20:59.668Z,18.43
2023-02-23T10:26:01.257Z,18.10
2023-02-23T10:31:02.118Z,17.43
2023-02-23T10:36:13.835Z,20.70
2023-02-23T10:41:16.747Z,19.90
2023-02-23T10:46:22.848Z,12.83
2023-02-23T10:51:27.367Z,11.90
2023-02-23T10:56:26.253Z,11.50
2023-02-23T11:01:55.468Z,10.07
2023-02-23T11:07:10.707Z,13.40
2023-02-23T11:12:22.397Z,14.57
2023-02-23T11:17:34.406Z,16.90
2023-02-23T11:22:35.300Z,25.73
2023-02-23T11:27:33.907Z,21.03
2023-02-23T11:32:39.057Z,25.37
2023-02-23T11:37:37.918Z,27.17
2023-02-23T11:42:36.489Z,22.00
2023-02-23T11:47:41.800Z,24.43
2023-02-23T11:52:45.694Z,32.27
2023-02-23T11:57:44.304Z,36.07
2023-02-23T12:02:53.786Z,49.90
2023-02-23T12:07:58.311Z,57.90
2023-02-23T12:13:04.534Z,47.30
2023-02-23T12:18:13.240Z,53.73
2023-02-23T12:23:16.510Z,72.77
2023-02-23T12:28:22.300Z,62.27
2023-02-23T12:33:30.405Z,51.67
2023-02-23T12:38:39.199Z,61.07
2023-02-23T12:43:41.452Z,64.83
2023-02-23T12:48:51.581Z,61.13
2023-02-23T12:53:50.301Z,55.40
2023-02-23T12:58:57.306Z,59.43
2023-02-23T13:04:10.790Z,63.13
2023-02-23T13:09:24.417Z,50.53
2023-02-23T13:14:30.242Z,60.00
2023-02-23T13:19:36.955Z,68.50
2023-02-23T13:24:40.554Z,62.27
2023-02-23T13:29:41.452Z,61.00
2023-02-23T13:34:48.264Z,65.97
2023-02-23T13:39:57.540Z,54.00
2023-02-23T13:45:07.128Z,62.67
2023-02-23T13:50:19.228Z,52.47
2023-02-23T13:55:48.565Z,56.90
2023-02-23T14:01:04.408Z,60.13
2023-02-23T14:06:07.000Z,61.97
2023-02-23T14:11:06.356Z,65.63
2023-02-23T14:16:18.569Z,62.87
2023-02-23T14:21:29.367Z,60.73
2023-02-23T14:26:43.107Z,70.80
2023-02-23T14:31:55.272Z,55.43
2023-02-23T14:36:55.784Z,61.50
2023-02-23T14:41:56.388Z,50.73
2023-02-23T14:47:02.855Z,56.47
2023-02-23T14:53:03.767Z,59.87
2023-02-23T14:58:04.978Z,58.40
2023-02-23T15:03:05.855Z,64.60
2023-02-23T15:08:07.361Z,59.80
2023-02-23T15:13:13.420Z,67.83
2023-02-23T15:18:24.154Z,58.60
2023-02-23T15:23:22.742Z,53.57
2023-02-23T15:28:25.942Z,53.03
2023-02-23T15:33:29.210Z,63.90
2023-02-23T15:38:45.726Z,59.43
2023-02-23T15:43:45.740Z,49.80
2023-02-23T15:48:47.876Z,42.70
2023-02-23T15:53:46.656Z,43.63
2023-02-23T15:58:57.026Z,52.53
2023-02-23T16:04:03.129Z,54.07
2023-02-23T16:09:06.065Z,52.00
2023-02-23T16:14:07.135Z,57.83
2023-02-23T16:19:05.830Z,48.47
2023-02-23T16:24:09.810Z,49.00
2023-02-23T16:29:14.718Z,57.30
2023-02-23T16:34:22.313Z,42.87
2023-02-23T16:39:20.826Z,64.23
2023-02-23T16:44:26.301Z,48.67
2023-02-23T16:49:29.957Z,43.87
2023-02-23T16:54:28.804Z,46.43
2023-02-23T16:59:29.221Z,37.33
2023-02-23T17:04:29.159Z,44.03
2023-02-23T17:09:28.079Z,48.77
2023-02-23T17:14:32.193Z,40.87
2023-02-23T17:19:30.511Z,40.33
2023-02-23T17:24:29.288Z,46.07
2023-02-23T17:29:29.160Z,32.17
2023-02-23T17:34:27.871Z,28.57
2023-02-23T17:39:28.394Z,21.07
2023-02-23T17:44:28.348Z,17.00
2023-02-23T17:49:27.537Z,20.73
2023-02-23T17:54:26.084Z,17.13
2023-02-23T17:59:24.667Z,16.30
2023-02-23T18:04:25.125Z,21.33
2023-02-23T18:09:23.615Z,21.70
2023-02-23T18:14:22.972Z,33.40
2023-02-23T18:19:22.102Z,28.43
2023-02-23T18:24:21.977Z,24.13
2023-02-23T18:29:20.310Z,29.97
2023-02-23T18:34:18.886Z,26.47
2023-02-23T18:39:18.503Z,20.60
2023-02-23T18:44:19.291Z,21.60
2023-02-23T18:49:18.675Z,23.57
2023-02-23T18:54:19.055Z,15.13
2023-02-23T18:59:18.677Z,18.97
2023-02-23T19:04:17.201Z,17.60
2023-02-23T19:09:19.673Z,17.00
2023-02-23T19:14:29.352Z,8.80
2023-02-23T19:19:36.046Z,15.43
2023-02-23T19:24:37.033Z,10.87
2023-02-23T19:29:37.253Z,7.83
2023-02-23T19:34:36.114Z,10.70
2023-02-23T19:39:34.729Z,5.47
2023-02-23T19:44:33.242Z,19.10
2023-02-23T19:49:32.846Z,10.27
2023-02-23T19:54:34.464Z,14.17
2023-02-23T19:59:33.080Z,12.40
2023-02-23T20:04:32.637Z,23.93
2023-02-23T20:09:30.871Z,11.87
2023-02-23T20:14:29.227Z,12.97
2023-02-23T20:19:27.661Z,15.37
2023-02-23T20:24:27.331Z,12.97
2023-02-23T20:29:28.150Z,10.57
2023-02-23T20:34:26.704Z,13.03
2023-02-23T20:39:27.273Z,10.83
2023-02-23T20:44:26.243Z,8.67
2023-02-23T20:49:25.682Z,12.27
2023-02-23T20:54:23.856Z,10.23
2023-02-23T20:59:23.396Z,12.23
2023-02-23T21:04:21.653Z,11.87
2023-02-23T21:09:19.899Z,6.73
2023-02-23T21:14:18.914Z,11.20
2023-02-23T21:19:20.242Z,6.83
2023-02-23T21:24:19.563Z,6.40
2023-02-23T21:29:18.146Z,10.40
2023-02-23T21:34:19.755Z,6.23
2023-02-23T21:39:19.397Z,12.27
2023-02-23T21:44:17.505Z,6.67
2023-02-23T21:49:17.158Z,10.50
2023-02-23T21:54:15.784Z,7.90
2023-02-23T21:59:15.302Z,11.90
2023-02-23T22:04:15.485Z,17.23
2023-02-23T22:09:15.729Z,4.63
2023-02-23T22:14:18.062Z,12.20
2023-02-23T22:19:17.311Z,15.03
2023-02-23T22:24:17.098Z,14.83
2023-02-23T22:29:17.120Z,6.40
2023-02-23T22:34:15.484Z,8.87
2023-02-23T22:39:16.396Z,10.10
2023-02-23T22:44:18.511Z,6.17
2023-02-23T22:49:19.946Z,11.70
2023-02-23T22:54:18.584Z,6.03
2023-02-23T22:59:20.352Z,10.40
2023-02-23T23:04:21.899Z,8.37
2023-02-23T23:09:21.170Z,9.53
2023-02-23T23:14:23.194Z,8.00
2023-02-23T23:19:24.272Z,9.37
2023-02-23T23:24:24.148Z,5.17
2023-02-23T23:29:25.802Z,9.40
2023-02-23T23:34:25.444Z,7.40
2023-02-23T23:39:26.038Z,6.70
2023-02-23T23:44:29.360Z,11.80
2023-02-23T23:49:27.916Z,11.70
2023-02-23T23:54:27.982Z,9.43
2023-02-23T23:59:28.226Z,12.23
